sensor_id;sensor_type;location;lat;lon;timestamp;P1;durP1;ratioP1;P2;durP2;ratioP2
19691;SDS011;42748;50.016;19.890;2022-10-13T00:00:58;65.18;;;35.13;;
19691;SDS011;42748;50.016;19.890;2022-10-13T00:03:25;81.15;;;39.03;;
19691;SDS011;42748;50.016;19.890;2022-10-13T00:05:52;78.72;;;39.58;;
19691;SDS011;42748;50.016;19.890;2022-10-13T00:08:20;84.70;;;42.15;;
19691;SDS011;42748;50.016;19.890;2022-10-13T00:10:48;87.70;;;43.42;;
19691;SDS011;42748;50.016;19.890;2022-10-13T00:13:20;90.15;;;44.88;;
19691;SDS011;42748;50.016;19.890;2022-10-13T00:15:47;86.50;;;42.85;;
19691;SDS011;42748;50.016;19.890;2022-10-13T00:18:15;88.72;;;47.45;;
19691;SDS011;42748;50.016;19.890;2022-10-13T00:20:46;85.35;;;44.28;;
19691;SDS011;42748;50.016;19.890;2022-10-13T00:23:15;94.30;;;45.88;;
19691;SDS011;42748;50.016;19.890;2022-10-13T00:25:46;81.40;;;42.47;;
19691;SDS011;42748;50.016;19.890;2022-10-13T00:28:15;81.15;;;41.03;;
19691;SDS011;42748;50.016;19.890;2022-10-13T00:30:44;83.40;;;41.83;;
19691;SDS011;42748;50.016;19.890;2022-10-13T00:33:12;82.00;;;41.77;;
19691;SDS011;42748;50.016;19.890;2022-10-13T00:35:44;81.73;;;40.50;;
19691;SDS011;42748;50.016;19.890;2022-10-13T00:38:13;77.30;;;39.00;;
19691;SDS011;42748;50.016;19.890;2022-10-13T00:40:45;77.93;;;39.70;;
19691;SDS011;42748;50.016;19.890;2022-10-13T00:43:19;76.15;;;38.80;;
19691;SDS011;42748;50.016;19.890;2022-10-13T00:45:49;77.20;;;38.17;;
19691;SDS011;42748;50.016;19.890;2022-10-13T00:48:21;82.60;;;38.87;;
19691;SDS011;42748;50.016;19.890;2022-10-13T00:50:52;76.20;;;38.20;;
19691;SDS011;42748;50.016;19.890;2022-10-13T00:53:20;79.37;;;38.83;;
19691;SDS011;42748;50.016;19.890;2022-10-13T00:55:49;79.17;;;39.43;;
19691;SDS011;42748;50.016;19.890;2022-10-13T00:58:18;87.33;;;40.73;;
19691;SDS011;42748;50.016;19.890;2022-10-13T01:00:49;75.07;;;38.97;;
19691;SDS011;42748;50.016;19.890;2022-10-13T01:03:17;80.77;;;39.40;;
19691;SDS011;42748;50.016;19.890;2022-10-13T01:05:45;77.23;;;39.20;;
19691;SDS011;42748;50.016;19.890;2022-10-13T01:08:15;77.03;;;39.20;;
19691;SDS011;42748;50.016;19.890;2022-10-13T01:24:42;88.53;;;42.13;;
19691;SDS011;42748;50.016;19.890;2022-10-13T01:27:17;86.63;;;41.27;;
19691;SDS011;42748;50.016;19.890;2022-10-13T01:35:38;89.40;;;43.17;;
19691;SDS011;42748;50.016;19.890;2022-10-13T01:38:15;88.27;;;43.53;;
19691;SDS011;42748;50.016;19.890;2022-10-13T01:43:56;87.20;;;42.70;;
19691;SDS011;42748;50.016;19.890;2022-10-13T01:46:33;81.40;;;42.20;;
19691;SDS011;42748;50.016;19.890;2022-10-13T01:49:04;77.07;;;40.67;;
19691;SDS011;42748;50.016;19.890;2022-10-13T01:51:36;85.43;;;41.37;;
19691;SDS011;42748;50.016;19.890;2022-10-13T01:54:04;84.57;;;42.00;;
19691;SDS011;42748;50.016;19.890;2022-10-13T01:56:32;87.50;;;41.83;;
19691;SDS011;42748;50.016;19.890;2022-10-13T01:59:00;85.93;;;42.43;;
19691;SDS011;42748;50.016;19.890;2022-10-13T02:04:25;84.93;;;41.73;;
19691;SDS011;42748;50.016;19.890;2022-10-13T02:07:34;89.97;;;41.53;;
19691;SDS011;42748;50.016;19.890;2022-10-13T02:10:10;85.97;;;41.40;;
19691;SDS011;42748;50.016;19.890;2022-10-13T02:12:48;84.43;;;41.23;;
19691;SDS011;42748;50.016;19.890;2022-10-13T02:15:29;82.80;;;40.07;;
19691;SDS011;42748;50.016;19.890;2022-10-13T02:18:03;88.00;;;43.30;;
19691;SDS011;42748;50.016;19.890;2022-10-13T02:20:31;83.17;;;42.37;;
19691;SDS011;42748;50.016;19.890;2022-10-13T02:23:03;88.40;;;44.77;;
19691;SDS011;42748;50.016;19.890;2022-10-13T02:25:35;83.53;;;44.50;;
19691;SDS011;42748;50.016;19.890;2022-10-13T02:28:02;95.63;;;47.27;;
19691;SDS011;42748;50.016;19.890;2022-10-13T02:30:33;107.77;;;48.27;;
19691;SDS011;42748;50.016;19.890;2022-10-13T02:33:01;98.40;;;46.87;;
19691;SDS011;42748;50.016;19.890;2022-10-13T02:35:28;101.77;;;50.77;;
19691;SDS011;42748;50.016;19.890;2022-10-13T02:38:00;102.30;;;50.77;;
19691;SDS011;42748;50.016;19.890;2022-10-13T02:40:27;106.87;;;53.03;;
19691;SDS011;42748;50.016;19.890;2022-10-13T02:42:54;103.50;;;53.33;;
19691;SDS011;42748;50.016;19.890;2022-10-13T02:45:22;111.80;;;53.67;;
19691;SDS011;42748;50.016;19.890;2022-10-13T02:47:53;109.27;;;53.43;;
19691;SDS011;42748;50.016;19.890;2022-10-13T02:50:20;104.53;;;52.13;;
19691;SDS011;42748;50.016;19.890;2022-10-13T02:52:48;102.33;;;53.60;;
19691;SDS011;42748;50.016;19.890;2022-10-13T02:55:15;111.07;;;55.20;;
19691;SDS011;42748;50.016;19.890;2022-10-13T02:57:44;109.73;;;53.83;;
19691;SDS011;42748;50.016;19.890;2022-10-13T03:00:11;113.10;;;56.47;;
19691;SDS011;42748;50.016;19.890;2022-10-13T03:02:39;121.93;;;57.77;;
19691;SDS011;42748;50.016;19.890;2022-10-13T03:05:06;120.43;;;56.57;;
19691;SDS011;42748;50.016;19.890;2022-10-13T03:07:33;120.07;;;58.37;;
19691;SDS011;42748;50.016;19.890;2022-10-13T03:10:00;132.53;;;60.17;;
19691;SDS011;42748;50.016;19.890;2022-10-13T03:12:27;129.23;;;58.33;;
19691;SDS011;42748;50.016;19.890;2022-10-13T03:14:54;119.17;;;56.80;;
19691;SDS011;42748;50.016;19.890;2022-10-13T03:17:21;127.87;;;58.47;;
19691;SDS011;42748;50.016;19.890;2022-10-13T03:19:49;117.03;;;55.90;;
19691;SDS011;42748;50.016;19.890;2022-10-13T03:22:16;125.27;;;58.30;;
19691;SDS011;42748;50.016;19.890;2022-10-13T03:24:44;124.30;;;58.33;;
19691;SDS011;42748;50.016;19.890;2022-10-13T03:27:11;134.10;;;58.30;;
19691;SDS011;42748;50.016;19.890;2022-10-13T03:29:39;127.33;;;56.40;;
19691;SDS011;42748;50.016;19.890;2022-10-13T03:32:06;128.53;;;57.33;;
19691;SDS011;42748;50.016;19.890;2022-10-13T03:34:33;169.53;;;53.67;;
19691;SDS011;42748;50.016;19.890;2022-10-13T03:37:00;157.57;;;50.57;;
19691;SDS011;42748;50.016;19.890;2022-10-13T03:39:32;124.83;;;49.67;;
19691;SDS011;42748;50.016;19.890;2022-10-13T03:42:00;146.00;;;47.63;;
19691;SDS011;42748;50.016;19.890;2022-10-13T03:44:27;230.27;;;53.60;;
19691;SDS011;42748;50.016;19.890;2022-10-13T03:46:54;194.43;;;51.10;;
19691;SDS011;42748;50.016;19.890;2022-10-13T03:49:20;133.63;;;49.33;;
19691;SDS011;42748;50.016;19.890;2022-10-13T03:51:47;116.27;;;49.07;;
19691;SDS011;42748;50.016;19.890;2022-10-13T03:54:14;129.77;;;50.30;;
19691;SDS011;42748;50.016;19.890;2022-10-13T03:56:45;132.73;;;47.90;;
19691;SDS011;42748;50.016;19.890;2022-10-13T03:59:12;179.33;;;49.17;;
19691;SDS011;42748;50.016;19.890;2022-10-13T04:01:42;159.37;;;48.10;;
19691;SDS011;42748;50.016;19.890;2022-10-13T04:04:09;150.23;;;47.73;;
19691;SDS011;42748;50.016;19.890;2022-10-13T04:06:40;107.17;;;47.37;;
19691;SDS011;42748;50.016;19.890;2022-10-13T04:09:07;108.17;;;48.07;;
19691;SDS011;42748;50.016;19.890;2022-10-13T04:11:35;188.80;;;47.77;;
19691;SDS011;42748;50.016;19.890;2022-10-13T04:14:02;121.10;;;46.70;;
19691;SDS011;42748;50.016;19.890;2022-10-13T04:16:29;99.47;;;47.07;;
19691;SDS011;42748;50.016;19.890;2022-10-13T04:18:59;200.63;;;44.87;;
19691;SDS011;42748;50.016;19.890;2022-10-13T04:21:28;111.57;;;43.00;;
19691;SDS011;42748;50.016;19.890;2022-10-13T04:23:57;128.17;;;44.07;;
19691;SDS011;42748;50.016;19.890;2022-10-13T04:26:25;145.37;;;42.07;;
19691;SDS011;42748;50.016;19.890;2022-10-13T04:28:55;101.43;;;41.83;;
19691;SDS011;42748;50.016;19.890;2022-10-13T04:31:23;89.00;;;41.50;;
19691;SDS011;42748;50.016;19.890;2022-10-13T04:33:51;91.83;;;40.53;;
19691;SDS011;42748;50.016;19.890;2022-10-13T04:36:18;84.20;;;41.60;;
19691;SDS011;42748;50.016;19.890;2022-10-13T04:38:48;86.57;;;39.97;;
19691;SDS011;42748;50.016;19.890;2022-10-13T04:41:16;80.83;;;38.73;;
19691;SDS011;42748;50.016;19.890;2022-10-13T04:43:46;78.43;;;39.43;;
19691;SDS011;42748;50.016;19.890;2022-10-13T04:46:15;83.10;;;40.13;;
19691;SDS011;42748;50.016;19.890;2022-10-13T04:48:47;86.57;;;40.20;;
19691;SDS011;42748;50.016;19.890;2022-10-13T04:51:15;75.83;;;36.97;;
19691;SDS011;42748;50.016;19.890;2022-10-13T04:53:44;76.77;;;38.63;;
19691;SDS011;42748;50.016;19.890;2022-10-13T04:56:13;149.83;;;37.50;;
19691;SDS011;42748;50.016;19.890;2022-10-13T04:58:42;160.97;;;39.93;;
19691;SDS011;42748;50.016;19.890;2022-10-13T05:01:12;80.57;;;37.57;;
19691;SDS011;42748;50.016;19.890;2022-10-13T05:03:49;76.27;;;36.77;;
19691;SDS011;42748;50.016;19.890;2022-10-13T05:06:18;76.90;;;37.47;;
19691;SDS011;42748;50.016;19.890;2022-10-13T05:08:48;76.80;;;36.73;;
19691;SDS011;42748;50.016;19.890;2022-10-13T05:11:15;123.13;;;39.20;;
19691;SDS011;42748;50.016;19.890;2022-10-13T05:13:44;93.73;;;37.23;;
19691;SDS011;42748;50.016;19.890;2022-10-13T05:16:13;100.07;;;37.30;;
19691;SDS011;42748;50.016;19.890;2022-10-13T05:18:41;164.43;;;39.67;;
19691;SDS011;42748;50.016;19.890;2022-10-13T05:21:10;75.03;;;38.07;;
19691;SDS011;42748;50.016;19.890;2022-10-13T05:23:39;77.23;;;36.40;;
19691;SDS011;42748;50.016;19.890;2022-10-13T05:26:08;76.80;;;36.53;;
19691;SDS011;42748;50.016;19.890;2022-10-13T05:28:36;78.97;;;35.83;;
19691;SDS011;42748;50.016;19.890;2022-10-13T05:31:07;71.47;;;35.07;;
19691;SDS011;42748;50.016;19.890;2022-10-13T05:33:45;71.90;;;36.03;;
19691;SDS011;42748;50.016;19.890;2022-10-13T05:36:23;85.17;;;37.43;;
19691;SDS011;42748;50.016;19.890;2022-10-13T05:39:01;97.40;;;36.37;;
19691;SDS011;42748;50.016;19.890;2022-10-13T05:41:30;72.00;;;34.27;;
19691;SDS011;42748;50.016;19.890;2022-10-13T05:44:01;106.43;;;36.63;;
19691;SDS011;42748;50.016;19.890;2022-10-13T05:46:31;80.87;;;37.40;;
19691;SDS011;42748;50.016;19.890;2022-10-13T05:48:59;77.83;;;36.37;;
19691;SDS011;42748;50.016;19.890;2022-10-13T05:51:27;83.50;;;37.57;;
19691;SDS011;42748;50.016;19.890;2022-10-13T05:54:01;83.47;;;36.53;;
19691;SDS011;42748;50.016;19.890;2022-10-13T05:56:39;83.40;;;37.20;;
19691;SDS011;42748;50.016;19.890;2022-10-13T05:59:11;82.57;;;37.90;;
19691;SDS011;42748;50.016;19.890;2022-10-13T06:01:44;83.00;;;35.83;;
19691;SDS011;42748;50.016;19.890;2022-10-13T06:04:17;91.83;;;38.13;;
19691;SDS011;42748;50.016;19.890;2022-10-13T06:06:49;76.33;;;36.23;;
19691;SDS011;42748;50.016;19.890;2022-10-13T06:09:16;79.17;;;38.50;;
19691;SDS011;42748;50.016;19.890;2022-10-13T06:11:43;86.30;;;38.10;;
19691;SDS011;42748;50.016;19.890;2022-10-13T06:14:10;104.00;;;36.77;;
19691;SDS011;42748;50.016;19.890;2022-10-13T06:16:37;104.70;;;37.37;;
19691;SDS011;42748;50.016;19.890;2022-10-13T06:19:04;86.73;;;35.57;;
19691;SDS011;42748;50.016;19.890;2022-10-13T06:21:34;84.53;;;37.10;;
19691;SDS011;42748;50.016;19.890;2022-10-13T06:24:01;95.90;;;36.93;;
19691;SDS011;42748;50.016;19.890;2022-10-13T06:26:28;78.30;;;36.53;;
19691;SDS011;42748;50.016;19.890;2022-10-13T06:28:55;82.47;;;38.37;;
19691;SDS011;42748;50.016;19.890;2022-10-13T06:31:25;117.07;;;37.60;;
19691;SDS011;42748;50.016;19.890;2022-10-13T06:33:53;89.63;;;38.33;;
19691;SDS011;42748;50.016;19.890;2022-10-13T06:36:20;83.87;;;38.03;;
19691;SDS011;42748;50.016;19.890;2022-10-13T06:38:47;83.47;;;35.93;;
19691;SDS011;42748;50.016;19.890;2022-10-13T06:41:17;93.47;;;35.03;;
19691;SDS011;42748;50.016;19.890;2022-10-13T06:43:44;69.23;;;35.70;;
19691;SDS011;42748;50.016;19.890;2022-10-13T06:46:11;78.93;;;36.70;;
19691;SDS011;42748;50.016;19.890;2022-10-13T06:48:38;72.63;;;36.10;;
19691;SDS011;42748;50.016;19.890;2022-10-13T06:51:09;81.03;;;36.53;;
19691;SDS011;42748;50.016;19.890;2022-10-13T06:53:37;84.43;;;37.07;;
19691;SDS011;42748;50.016;19.890;2022-10-13T06:56:05;78.03;;;37.17;;
19691;SDS011;42748;50.016;19.890;2022-10-13T06:58:34;74.93;;;36.10;;
19691;SDS011;42748;50.016;19.890;2022-10-13T07:01:02;76.50;;;34.97;;
19691;SDS011;42748;50.016;19.890;2022-10-13T07:03:30;74.23;;;36.23;;
19691;SDS011;42748;50.016;19.890;2022-10-13T07:06:01;73.47;;;36.37;;
19691;SDS011;42748;50.016;19.890;2022-10-13T07:08:29;70.78;;;35.60;;
19691;SDS011;42748;50.016;19.890;2022-10-13T07:10:56;72.30;;;35.13;;
19691;SDS011;42748;50.016;19.890;2022-10-13T07:13:24;75.10;;;35.53;;
19691;SDS011;42748;50.016;19.890;2022-10-13T07:15:51;77.72;;;37.25;;
19691;SDS011;42748;50.016;19.890;2022-10-13T07:18:18;69.60;;;35.25;;
19691;SDS011;42748;50.016;19.890;2022-10-13T07:20:45;69.47;;;36.10;;
19691;SDS011;42748;50.016;19.890;2022-10-13T07:23:12;73.03;;;34.88;;
19691;SDS011;42748;50.016;19.890;2022-10-13T07:25:39;75.20;;;35.75;;
19691;SDS011;42748;50.016;19.890;2022-10-13T07:28:07;71.07;;;35.25;;
19691;SDS011;42748;50.016;19.890;2022-10-13T07:30:34;73.07;;;34.95;;
19691;SDS011;42748;50.016;19.890;2022-10-13T07:33:01;67.20;;;33.20;;
19691;SDS011;42748;50.016;19.890;2022-10-13T07:35:28;67.85;;;34.00;;
19691;SDS011;42748;50.016;19.890;2022-10-13T07:37:56;73.13;;;34.33;;
19691;SDS011;42748;50.016;19.890;2022-10-13T07:40:23;71.88;;;35.58;;
19691;SDS011;42748;50.016;19.890;2022-10-13T07:42:50;76.43;;;35.58;;
19691;SDS011;42748;50.016;19.890;2022-10-13T07:45:17;71.32;;;34.97;;
19691;SDS011;42748;50.016;19.890;2022-10-13T13:24:31;16.75;;;8.15;;
19691;SDS011;42748;50.016;19.890;2022-10-13T13:27:12;20.95;;;8.02;;
19691;SDS011;42748;50.016;19.890;2022-10-13T13:29:51;16.13;;;8.32;;
19691;SDS011;42748;50.016;19.890;2022-10-13T13:32:20;16.10;;;8.20;;
19691;SDS011;42748;50.016;19.890;2022-10-13T13:34:49;19.85;;;7.53;;
19691;SDS011;42748;50.016;19.890;2022-10-13T13:37:22;16.63;;;7.60;;
19691;SDS011;42748;50.016;19.890;2022-10-13T13:39:59;13.70;;;7.32;;
19691;SDS011;42748;50.016;19.890;2022-10-13T13:42:26;13.57;;;7.35;;
19691;SDS011;42748;50.016;19.890;2022-10-13T13:44:54;15.35;;;7.68;;
19691;SDS011;42748;50.016;19.890;2022-10-13T13:47:25;16.45;;;7.68;;
19691;SDS011;42748;50.016;19.890;2022-10-13T13:49:54;15.15;;;7.80;;
19691;SDS011;42748;50.016;19.890;2022-10-13T13:52:23;19.65;;;8.55;;
19691;SDS011;42748;50.016;19.890;2022-10-13T13:54:50;14.55;;;7.50;;
19691;SDS011;42748;50.016;19.890;2022-10-13T13:57:18;17.75;;;7.82;;
19691;SDS011;42748;50.016;19.890;2022-10-13T13:59:46;14.85;;;7.55;;
19691;SDS011;42748;50.016;19.890;2022-10-13T14:02:18;17.83;;;7.75;;
19691;SDS011;42748;50.016;19.890;2022-10-13T14:04:46;20.38;;;7.68;;
19691;SDS011;42748;50.016;19.890;2022-10-13T14:07:15;18.67;;;8.23;;
19691;SDS011;42748;50.016;19.890;2022-10-13T14:09:44;23.33;;;8.27;;
19691;SDS011;42748;50.016;19.890;2022-10-13T14:12:11;15.50;;;7.75;;
19691;SDS011;42748;50.016;19.890;2022-10-13T14:14:38;13.57;;;7.97;;
19691;SDS011;42748;50.016;19.890;2022-10-13T14:17:07;15.55;;;8.40;;
19691;SDS011;42748;50.016;19.890;2022-10-13T14:19:34;23.05;;;8.80;;
19691;SDS011;42748;50.016;19.890;2022-10-13T14:22:01;18.58;;;9.05;;
19691;SDS011;42748;50.016;19.890;2022-10-13T14:24:34;16.35;;;9.55;;
19691;SDS011;42748;50.016;19.890;2022-10-13T14:27:02;15.63;;;8.40;;
19691;SDS011;42748;50.016;19.890;2022-10-13T14:29:29;16.42;;;9.02;;
19691;SDS011;42748;50.016;19.890;2022-10-13T14:31:56;16.77;;;9.18;;
19691;SDS011;42748;50.016;19.890;2022-10-13T14:34:23;16.23;;;9.00;;
19691;SDS011;42748;50.016;19.890;2022-10-13T14:36:50;16.52;;;8.48;;
19691;SDS011;42748;50.016;19.890;2022-10-13T14:43:50;15.40;;;8.50;;
19691;SDS011;42748;50.016;19.890;2022-10-13T14:46:18;18.55;;;8.20;;
19691;SDS011;42748;50.016;19.890;2022-10-13T14:48:45;15.50;;;8.48;;
19691;SDS011;42748;50.016;19.890;2022-10-13T14:52:55;13.40;;;8.30;;
19691;SDS011;42748;50.016;19.890;2022-10-13T14:55:23;16.45;;;8.35;;
19691;SDS011;42748;50.016;19.890;2022-10-13T14:57:50;14.40;;;7.60;;
19691;SDS011;42748;50.016;19.890;2022-10-13T15:00:17;18.60;;;8.32;;
19691;SDS011;42748;50.016;19.890;2022-10-13T15:02:44;15.45;;;8.77;;
19691;SDS011;42748;50.016;19.890;2022-10-13T15:05:11;18.40;;;8.88;;
19691;SDS011;42748;50.016;19.890;2022-10-13T15:07:38;16.33;;;8.48;;
19691;SDS011;42748;50.016;19.890;2022-10-13T15:10:06;16.67;;;8.40;;
19691;SDS011;42748;50.016;19.890;2022-10-13T15:12:34;17.67;;;7.60;;
19691;SDS011;42748;50.016;19.890;2022-10-13T15:15:00;15.00;;;8.23;;
19691;SDS011;42748;50.016;19.890;2022-10-13T15:17:28;20.75;;;8.88;;
19691;SDS011;42748;50.016;19.890;2022-10-13T15:19:56;17.33;;;8.98;;
19691;SDS011;42748;50.016;19.890;2022-10-13T15:22:23;19.00;;;8.98;;
19691;SDS011;42748;50.016;19.890;2022-10-13T15:24:51;25.25;;;8.80;;
19691;SDS011;42748;50.016;19.890;2022-10-13T15:27:18;18.38;;;8.50;;
19691;SDS011;42748;50.016;19.890;2022-10-13T15:29:45;15.48;;;8.32;;
19691;SDS011;42748;50.016;19.890;2022-10-13T15:32:13;18.92;;;9.43;;
19691;SDS011;42748;50.016;19.890;2022-10-13T15:34:52;22.00;;;9.25;;
19691;SDS011;42748;50.016;19.890;2022-10-13T15:37:20;15.55;;;9.52;;
19691;SDS011;42748;50.016;19.890;2022-10-13T15:39:46;20.58;;;10.55;;
19691;SDS011;42748;50.016;19.890;2022-10-13T15:42:19;19.67;;;10.13;;
19691;SDS011;42748;50.016;19.890;2022-10-13T15:44:47;23.30;;;10.50;;
19691;SDS011;42748;50.016;19.890;2022-10-13T15:47:34;18.65;;;10.23;;
19691;SDS011;42748;50.016;19.890;2022-10-13T15:50:01;19.25;;;9.88;;
19691;SDS011;42748;50.016;19.890;2022-10-13T15:52:29;21.45;;;10.43;;
19691;SDS011;42748;50.016;19.890;2022-10-13T15:55:00;22.17;;;9.90;;
19691;SDS011;42748;50.016;19.890;2022-10-13T15:57:28;19.65;;;10.23;;
19691;SDS011;42748;50.016;19.890;2022-10-13T15:59:56;22.45;;;9.82;;
19691;SDS011;42748;50.016;19.890;2022-10-13T16:02:23;21.85;;;10.23;;
19691;SDS011;42748;50.016;19.890;2022-10-13T16:04:50;19.38;;;11.13;;
19691;SDS011;42748;50.016;19.890;2022-10-13T16:07:17;18.92;;;9.90;;
19691;SDS011;42748;50.016;19.890;2022-10-13T16:09:44;25.23;;;11.10;;
19691;SDS011;42748;50.016;19.890;2022-10-13T16:12:11;22.17;;;11.23;;
19691;SDS011;42748;50.016;19.890;2022-10-13T16:14:38;24.02;;;11.20;;
19691;SDS011;42748;50.016;19.890;2022-10-13T16:17:05;22.60;;;11.23;;
19691;SDS011;42748;50.016;19.890;2022-10-13T16:19:32;27.00;;;10.60;;
19691;SDS011;42748;50.016;19.890;2022-10-13T16:22:06;20.77;;;10.85;;
19691;SDS011;42748;50.016;19.890;2022-10-13T16:24:33;27.20;;;12.52;;
19691;SDS011;42748;50.016;19.890;2022-10-13T16:27:00;20.63;;;11.30;;
19691;SDS011;42748;50.016;19.890;2022-10-13T16:29:28;23.33;;;11.70;;
19691;SDS011;42748;50.016;19.890;2022-10-13T16:31:55;24.90;;;11.65;;
19691;SDS011;42748;50.016;19.890;2022-10-13T16:34:22;24.63;;;12.45;;
19691;SDS011;42748;50.016;19.890;2022-10-13T16:36:49;25.52;;;12.75;;
19691;SDS011;42748;50.016;19.890;2022-10-13T16:39:16;25.75;;;12.88;;
19691;SDS011;42748;50.016;19.890;2022-10-13T16:41:43;28.40;;;12.43;;
19691;SDS011;42748;50.016;19.890;2022-10-13T16:44:10;24.65;;;12.43;;
19691;SDS011;42748;50.016;19.890;2022-10-13T16:46:37;26.30;;;12.82;;
19691;SDS011;42748;50.016;19.890;2022-10-13T16:49:05;21.10;;;12.07;;
19691;SDS011;42748;50.016;19.890;2022-10-13T16:51:33;24.42;;;13.55;;
19691;SDS011;42748;50.016;19.890;2022-10-13T16:53:59;22.40;;;12.68;;
19691;SDS011;42748;50.016;19.890;2022-10-13T16:56:30;27.80;;;14.00;;
19691;SDS011;42748;50.016;19.890;2022-10-13T16:58:58;26.27;;;13.57;;
19691;SDS011;42748;50.016;19.890;2022-10-13T17:01:27;28.10;;;14.35;;
19691;SDS011;42748;50.016;19.890;2022-10-13T17:03:54;24.65;;;14.50;;
19691;SDS011;42748;50.016;19.890;2022-10-13T17:06:23;28.95;;;15.57;;
19691;SDS011;42748;50.016;19.890;2022-10-13T17:08:53;30.83;;;14.85;;
19691;SDS011;42748;50.016;19.890;2022-10-13T17:11:23;26.55;;;14.73;;
19691;SDS011;42748;50.016;19.890;2022-10-13T17:13:51;26.52;;;14.50;;
19691;SDS011;42748;50.016;19.890;2022-10-13T17:16:18;28.63;;;15.68;;
19691;SDS011;42748;50.016;19.890;2022-10-13T17:18:46;32.08;;;18.73;;
19691;SDS011;42748;50.016;19.890;2022-10-13T17:21:14;48.83;;;24.58;;
19691;SDS011;42748;50.016;19.890;2022-10-13T17:23:43;35.70;;;15.77;;
19691;SDS011;42748;50.016;19.890;2022-10-13T17:26:15;32.33;;;16.00;;
19691;SDS011;42748;50.016;19.890;2022-10-13T17:28:43;29.85;;;15.52;;
19691;SDS011;42748;50.016;19.890;2022-10-13T17:31:15;27.20;;;16.52;;
19691;SDS011;42748;50.016;19.890;2022-10-13T17:33:45;31.92;;;16.95;;
19691;SDS011;42748;50.016;19.890;2022-10-13T17:36:14;33.90;;;17.80;;
19691;SDS011;42748;50.016;19.890;2022-10-13T17:38:46;32.58;;;17.27;;
19691;SDS011;42748;50.016;19.890;2022-10-13T17:41:14;32.85;;;18.10;;
19691;SDS011;42748;50.016;19.890;2022-10-13T17:43:48;34.90;;;17.95;;
19691;SDS011;42748;50.016;19.890;2022-10-13T17:46:18;35.92;;;18.55;;
19691;SDS011;42748;50.016;19.890;2022-10-13T17:49:02;37.85;;;18.63;;
19691;SDS011;42748;50.016;19.890;2022-10-13T17:51:29;38.53;;;19.42;;
19691;SDS011;42748;50.016;19.890;2022-10-13T17:53:56;35.58;;;18.85;;
19691;SDS011;42748;50.016;19.890;2022-10-13T17:56:25;36.65;;;19.63;;
19691;SDS011;42748;50.016;19.890;2022-10-13T17:58:52;36.17;;;19.05;;
19691;SDS011;42748;50.016;19.890;2022-10-13T18:01:20;41.50;;;20.90;;
19691;SDS011;42748;50.016;19.890;2022-10-13T18:03:59;36.50;;;20.38;;
19691;SDS011;42748;50.016;19.890;2022-10-13T18:06:31;44.67;;;20.02;;
19691;SDS011;42748;50.016;19.890;2022-10-13T18:09:04;43.83;;;20.65;;
19691;SDS011;42748;50.016;19.890;2022-10-13T18:11:33;38.33;;;20.15;;
19691;SDS011;42748;50.016;19.890;2022-10-13T18:14:01;40.38;;;20.77;;
19691;SDS011;42748;50.016;19.890;2022-10-13T18:16:29;45.80;;;21.08;;
19691;SDS011;42748;50.016;19.890;2022-10-13T18:18:56;47.58;;;22.02;;
19691;SDS011;42748;50.016;19.890;2022-10-13T18:21:23;47.38;;;22.05;;
19691;SDS011;42748;50.016;19.890;2022-10-13T18:23:54;46.97;;;22.00;;
19691;SDS011;42748;50.016;19.890;2022-10-13T18:26:22;43.25;;;22.83;;
19691;SDS011;42748;50.016;19.890;2022-10-13T18:28:50;42.70;;;22.42;;
19691;SDS011;42748;50.016;19.890;2022-10-13T18:33:56;44.05;;;22.80;;
19691;SDS011;42748;50.016;19.890;2022-10-13T18:36:32;48.45;;;23.30;;
19691;SDS011;42748;50.016;19.890;2022-10-13T18:39:08;47.75;;;23.67;;
19691;SDS011;42748;50.016;19.890;2022-10-13T18:41:43;47.70;;;23.92;;
19691;SDS011;42748;50.016;19.890;2022-10-13T18:44:11;46.72;;;23.13;;
19691;SDS011;42748;50.016;19.890;2022-10-13T18:46:38;49.63;;;24.63;;
19691;SDS011;42748;50.016;19.890;2022-10-13T18:49:06;49.92;;;25.05;;
19691;SDS011;42748;50.016;19.890;2022-10-13T18:51:37;49.30;;;24.33;;
19691;SDS011;42748;50.016;19.890;2022-10-13T18:54:05;50.88;;;25.33;;
19691;SDS011;42748;50.016;19.890;2022-10-13T18:56:33;48.10;;;25.42;;
19691;SDS011;42748;50.016;19.890;2022-10-13T18:59:03;48.33;;;25.77;;
19691;SDS011;42748;50.016;19.890;2022-10-13T19:01:31;50.40;;;25.92;;
19691;SDS011;42748;50.016;19.890;2022-10-13T19:04:00;55.15;;;25.10;;
19691;SDS011;42748;50.016;19.890;2022-10-13T19:06:27;47.80;;;26.23;;
19691;SDS011;42748;50.016;19.890;2022-10-13T19:09:02;53.38;;;26.55;;
19691;SDS011;42748;50.016;19.890;2022-10-13T19:11:32;54.13;;;27.20;;
19691;SDS011;42748;50.016;19.890;2022-10-13T19:14:00;62.28;;;26.67;;
19691;SDS011;42748;50.016;19.890;2022-10-13T19:16:29;57.92;;;27.73;;
19691;SDS011;42748;50.016;19.890;2022-10-13T19:18:57;53.92;;;26.38;;
19691;SDS011;42748;50.016;19.890;2022-10-13T19:21:24;59.25;;;27.73;;
19691;SDS011;42748;50.016;19.890;2022-10-13T19:23:51;55.85;;;28.33;;
19691;SDS011;42748;50.016;19.890;2022-10-13T19:26:20;56.47;;;28.38;;
19691;SDS011;42748;50.016;19.890;2022-10-13T19:28:53;51.72;;;28.15;;
19691;SDS011;42748;50.016;19.890;2022-10-13T19:31:22;58.30;;;27.80;;
19691;SDS011;42748;50.016;19.890;2022-10-13T19:33:52;60.05;;;27.45;;
19691;SDS011;42748;50.016;19.890;2022-10-13T19:36:21;55.40;;;27.80;;
19691;SDS011;42748;50.016;19.890;2022-10-13T19:38:50;49.47;;;27.00;;
19691;SDS011;42748;50.016;19.890;2022-10-13T19:41:17;56.63;;;28.15;;
19691;SDS011;42748;50.016;19.890;2022-10-13T19:43:45;58.03;;;29.45;;
19691;SDS011;42748;50.016;19.890;2022-10-13T19:46:12;55.65;;;29.05;;
19691;SDS011;42748;50.016;19.890;2022-10-13T19:48:39;55.53;;;28.30;;
19691;SDS011;42748;50.016;19.890;2022-10-13T19:51:07;62.10;;;29.63;;
19691;SDS011;42748;50.016;19.890;2022-10-13T19:53:35;58.92;;;29.67;;
19691;SDS011;42748;50.016;19.890;2022-10-13T19:56:04;59.22;;;29.10;;
19691;SDS011;42748;50.016;19.890;2022-10-13T19:58:31;55.42;;;28.08;;
19691;SDS011;42748;50.016;19.890;2022-10-13T20:01:05;55.67;;;29.00;;
19691;SDS011;42748;50.016;19.890;2022-10-13T20:03:33;64.43;;;28.95;;
19691;SDS011;42748;50.016;19.890;2022-10-13T20:06:04;57.65;;;28.27;;
19691;SDS011;42748;50.016;19.890;2022-10-13T20:08:36;55.97;;;28.50;;
19691;SDS011;42748;50.016;19.890;2022-10-13T20:11:04;58.20;;;29.25;;
19691;SDS011;42748;50.016;19.890;2022-10-13T20:13:36;61.08;;;28.88;;
19691;SDS011;42748;50.016;19.890;2022-10-13T20:16:06;61.97;;;30.88;;
19691;SDS011;42748;50.016;19.890;2022-10-13T20:18:35;55.75;;;30.17;;
19691;SDS011;42748;50.016;19.890;2022-10-13T20:21:03;60.97;;;31.05;;
19691;SDS011;42748;50.016;19.890;2022-10-13T20:23:31;58.58;;;30.63;;
19691;SDS011;42748;50.016;19.890;2022-10-13T20:26:02;57.28;;;31.15;;
19691;SDS011;42748;50.016;19.890;2022-10-13T20:28:33;61.03;;;31.33;;
19691;SDS011;42748;50.016;19.890;2022-10-13T20:31:09;63.38;;;31.38;;